Time;durP1;ratioP1;P1;durP2;ratioP2;P2;SDS_P1;SDS_P2;PMS_P1;PMS_P2;Temp;Humidity;BMP_temperature;BMP_pressure;BME280_temperature;BME280_humidity;BME280_pressure;Samples;Min_cycle;Max_cycle;Signal;HPM_P1;HPM_P2
2022/05/28 00:01:57;;;;;;;0.30;0.30;;;13.20;99.90;12.60;102082.00;;;;5035566;28;20192;-64
2022/05/28 00:04:23;;;;;;;0.50;0.50;;;13.10;99.90;13.10;102065.00;;;;5035713;28;20659;-64
2022/05/28 00:06:48;;;;;;;0.40;0.40;;;13.20;99.90;12.80;102091.00;;;;5035759;28;20274;-64
2022/05/28 00:09:14;;;;;;;0.50;0.40;;;13.30;99.90;12.60;102081.00;;;;5035616;28;20168;-64
2022/05/28 00:11:41;;;;;;;1.73;1.63;;;13.10;99.90;13.40;102090.00;;;;5035594;28;20658;-64
2022/05/28 00:14:09;;;;;;;2.23;1.87;;;13.30;99.90;13.20;102067.00;;;;5035487;28;20183;-64
2022/05/28 00:16:36;;;;;;;0.30;0.30;;;13.40;99.90;12.80;102089.00;;;;5035566;28;20180;-64
2022/05/28 00:19:06;;;;;;;0.80;0.80;;;13.30;99.90;12.80;102092.00;;;;5035597;28;20233;-64
2022/05/28 00:21:33;;;;;;;0.40;0.40;;;13.30;99.90;12.50;102085.00;;;;5034211;28;20211;-64
2022/05/28 00:24:00;;;;;;;0.30;0.30;;;13.10;99.90;12.40;102078.00;;;;5035259;28;20179;-64
2022/05/28 00:26:26;;;;;;;0.70;0.70;;;13.00;99.90;12.40;102069.00;;;;5035198;28;20181;-64
2022/05/28 00:28:52;;;;;;;0.40;0.40;;;12.90;99.90;13.00;102081.00;;;;5035364;28;20625;-64
2022/05/28 00:31:18;;;;;;;0.30;0.30;;;13.10;99.90;13.30;102084.00;;;;5034854;28;20208;-64
2022/05/28 00:33:44;;;;;;;7.83;1.70;;;13.30;99.90;13.30;102087.00;;;;5050481;28;20257;-64
2022/05/28 00:36:12;;;;;;;0.30;0.30;;;13.50;99.90;12.80;102034.00;;;;5033859;28;20278;-64
2022/05/28 00:38:41;;;;;;;0.40;0.40;;;13.30;99.90;12.40;102035.00;;;;5050698;28;20690;-64
2022/05/28 00:41:08;;;;;;;0.30;0.30;;;13.10;99.90;12.50;102076.00;;;;5050351;28;20232;-64
2022/05/28 00:43:37;;;;;;;0.30;0.30;;;13.00;99.90;12.10;102066.00;;;;5050631;28;20179;-64
2022/05/28 00:46:07;;;;;;;0.30;0.30;;;12.70;99.90;12.40;102073.00;;;;5033693;28;20639;-65
2022/05/28 00:48:37;;;;;;;0.63;0.63;;;12.80;99.90;12.70;102046.00;;;;5050378;28;20640;-65
2022/05/28 00:51:29;;;;;;;0.37;0.37;;;12.90;99.90;12.10;102049.00;;;;5050303;28;20203;-65
2022/05/28 00:53:59;;;;;;;0.40;0.40;;;12.70;99.90;12.10;102058.00;;;;5050097;28;20188;-64
2022/05/28 00:56:27;;;;;;;2.77;1.67;;;12.70;99.90;11.90;102064.00;;;;5049385;28;20207;-64
2022/05/28 00:58:54;;;;;;;1.70;0.83;;;12.50;99.90;11.80;102065.00;;;;5050254;28;20171;-64
2022/05/28 01:01:27;;;;;;;0.50;0.50;;;12.40;99.90;11.80;102068.00;;;;5049810;28;20326;-64
2022/05/28 01:04:29;;;;;;;0.40;0.40;;;12.40;99.90;11.90;102073.00;;;;5034590;28;20224;-64
2022/05/28 01:07:11;;;;;;;0.60;0.60;;;12.40;99.90;11.90;102070.00;;;;5049944;28;20223;-64
2022/05/28 01:10:15;;;;;;;0.30;0.30;;;12.40;99.90;12.10;102070.00;;;;5050420;28;20701;-64
2022/05/28 01:12:52;;;;;;;0.70;0.70;;;12.50;99.90;11.90;102032.00;;;;5049940;28;20204;-64
2022/05/28 01:15:25;;;;;;;0.40;0.40;;;12.40;99.90;11.70;102065.00;;;;5049621;28;20548;-64
2022/05/28 01:18:14;;;;;;;10.40;1.63;;;12.30;99.90;11.70;102066.00;;;;5049792;28;20280;-64
2022/05/28 01:21:24;;;;;;;0.63;0.63;;;12.20;99.90;12.20;102026.00;;;;5049712;28;20215;-65
2022/05/28 01:24:08;;;;;;;0.40;0.40;;;12.30;99.90;11.80;102069.00;;;;5034514;28;20171;-64
2022/05/28 01:26:55;;;;;;;0.67;0.67;;;12.40;99.90;11.50;102068.00;;;;5049559;28;20214;-64
2022/05/28 01:29:25;;;;;;;1.27;1.27;;;12.20;99.90;11.70;102073.00;;;;5034023;28;20181;-64
2022/05/28 01:31:51;;;;;;;0.37;0.37;;;12.30;99.90;11.70;102062.00;;;;5034044;28;20210;-64
2022/05/28 01:34:19;;;;;;;0.80;0.80;;;12.30;99.90;12.10;102064.00;;;;5033946;28;20236;-64
2022/05/28 01:36:48;;;;;;;2.43;0.67;;;12.30;99.90;11.70;102019.00;;;;5049883;28;20238;-64
2022/05/28 01:39:15;;;;;;;1.50;1.40;;;12.30;99.90;12.00;102056.00;;;;5034041;28;20190;-64
2022/05/28 01:41:43;;;;;;;0.40;0.40;;;12.40;99.90;12.00;102012.00;;;;5034075;28;20168;-64
2022/05/28 01:44:11;;;;;;;1.00;0.90;;;12.50;99.90;11.80;102050.00;;;;5033576;28;20183;-64
2022/05/28 01:46:39;;;;;;;1.37;1.27;;;12.30;99.90;11.70;102058.00;;;;5034083;28;20181;-64
2022/05/28 01:49:10;;;;;;;0.30;0.30;;;12.30;99.90;11.50;102019.00;;;;5034029;28;20184;-64
2022/05/28 01:51:43;;;;;;;0.60;0.60;;;12.20;99.90;11.70;102053.00;;;;5048991;28;20583;-64
2022/05/28 01:54:13;;;;;;;0.40;0.40;;;12.20;99.90;12.00;102029.00;;;;5048994;28;20175;-64
2022/05/28 01:56:46;;;;;;;0.40;0.40;;;12.40;99.90;12.00;102050.00;;;;5033927;28;20583;-64
2022/05/28 01:59:27;;;;;;;2.70;2.60;;;12.30;99.90;11.70;102053.00;;;;5048891;28;20271;-64
2022/05/28 02:01:56;;;;;;;9.33;8.87;;;12.40;99.90;11.50;102050.00;;;;5033596;28;20191;-64
2022/05/28 02:04:23;;;;;;;0.63;0.63;;;12.20;99.90;11.80;102049.00;;;;5048918;28;20179;-64
2022/05/28 02:06:49;;;;;;;8.90;1.43;;;12.20;99.90;11.80;102021.00;;;;5048918;28;20190;-64
2022/05/28 02:09:33;;;;;;;5.43;2.27;;;12.20;99.90;11.60;102056.00;;;;5033364;28;20209;-64
2022/05/28 02:12:05;;;;;;;0.60;0.60;;;12.10;99.90;11.90;102057.00;;;;5048823;28;20203;-64
2022/05/28 02:14:31;;;;;;;1.10;1.03;;;12.20;99.90;11.90;102057.00;;;;5048854;28;20166;-64
2022/05/28 02:17:12;;;;;;;0.40;0.40;;;12.30;99.90;11.80;102035.00;;;;5033505;28;20177;-64
2022/05/28 02:19:59;;;;;;;0.57;0.57;;;12.30;99.90;11.60;102057.00;;;;5049059;28;20189;-64
2022/05/28 02:22:50;;;;;;;1.53;1.40;;;12.20;99.90;11.60;102053.00;;;;5032052;28;20650;-64
2022/05/28 02:25:26;;;;;;;0.30;0.30;;;12.10;99.90;11.30;102056.00;;;;5048568;28;20544;-64
2022/05/28 02:27:53;;;;;;;0.30;0.30;;;12.00;99.90;11.70;102058.00;;;;5048852;28;20167;-64
2022/05/28 02:30:19;;;;;;;1.20;1.13;;;12.10;99.90;12.10;102050.00;;;;5048512;28;20729;-64
2022/05/28 02:32:45;;;;;;;0.73;0.73;;;12.30;99.90;11.80;102047.00;;;;5048566;28;20606;-64
2022/05/28 02:35:12;;;;;;;0.60;0.60;;;12.30;99.90;11.60;102037.00;;;;5033267;28;20182;-64
2022/05/28 02:37:38;;;;;;;20.47;4.00;;;12.10;99.90;11.50;102050.00;;;;5033170;28;20214;-64
2022/05/28 02:40:07;;;;;;;0.93;0.93;;;12.10;99.90;11.90;102039.00;;;;5033073;28;20186;-64
2022/05/28 02:42:33;;;;;;;10.50;2.47;;;12.20;99.90;11.90;102048.00;;;;5032646;28;20546;-64
2022/05/28 02:44:59;;;;;;;1.40;1.10;;;12.20;99.90;11.90;102040.00;;;;5033221;28;20174;-64
2022/05/28 02:47:25;;;;;;;1.30;1.20;;;12.30;99.90;12.20;102030.00;;;;5031889;28;20184;-64
2022/05/28 02:49:54;;;;;;;0.53;0.53;;;12.40;99.90;12.50;102033.00;;;;5032996;28;20178;-64
2022/05/28 02:52:20;;;;;;;1.57;1.47;;;12.60;99.90;12.60;102038.00;;;;5032755;28;20670;-65
2022/05/28 02:54:45;;;;;;;0.30;0.30;;;12.70;99.90;12.80;102034.00;;;;5048561;28;20324;-64
2022/05/28 02:57:11;;;;;;;1.07;1.00;;;12.80;99.90;12.40;102009.00;;;;5032742;28;20177;-64
2022/05/28 02:59:37;;;;;;;0.30;0.30;;;12.80;99.90;11.60;102025.00;;;;5032852;28;20179;-64
2022/05/28 03:02:03;;;;;;;0.40;0.40;;;12.50;99.90;11.70;102021.00;;;;5032726;28;20190;-64
2022/05/28 03:04:29;;;;;;;3.40;0.73;;;12.30;99.90;11.50;101988.00;;;;5048423;28;20244;-64
2022/05/28 03:06:55;;;;;;;1.23;1.17;;;12.20;99.90;11.40;101994.00;;;;5048324;28;20237;-64
2022/05/28 03:09:21;;;;;;;0.70;0.70;;;12.00;99.90;11.50;101997.00;;;;5048085;28;20191;-64
2022/05/28 03:11:47;;;;;;;1.07;1.07;;;12.00;99.90;12.00;102020.00;;;;5032895;28;20202;-64
2022/05/28 03:14:13;;;;;;;0.30;0.30;;;12.10;99.90;12.30;102034.00;;;;5048512;28;20187;-64
2022/05/28 03:16:40;;;;;;;1.17;1.17;;;12.40;99.90;12.60;102036.00;;;;5048054;28;20274;-64
2022/05/28 03:19:05;;;;;;;0.40;0.40;;;12.60;99.90;12.20;102039.00;;;;5035227;28;20188;-64
2022/05/28 03:21:31;;;;;;;1.07;1.03;;;12.60;99.90;11.70;102036.00;;;;5036875;28;20274;-65
2022/05/28 03:23:57;;;;;;;0.40;0.40;;;12.20;99.90;11.30;102040.00;;;;5037021;28;20180;-64
2022/05/28 03:26:27;;;;;;;0.30;0.30;;;12.00;99.90;12.00;102011.00;;;;5036254;28;20196;-65
2022/05/28 03:28:56;;;;;;;0.40;0.40;;;12.20;99.90;12.20;102053.00;;;;5052212;28;20184;-65
2022/05/28 03:31:25;;;;;;;0.30;0.30;;;12.40;99.90;12.00;102045.00;;;;5035973;28;20221;-65
2022/05/28 03:33:51;;;;;;;0.40;0.40;;;12.30;99.90;12.30;102047.00;;;;5051821;28;20186;-66
2022/05/28 03:36:17;;;;;;;0.30;0.30;;;12.40;99.90;12.40;102041.00;;;;5051611;28;20179;-66
2022/05/28 03:38:43;;;;;;;0.30;0.30;;;12.50;99.90;12.30;102034.00;;;;5036208;28;20269;-65
2022/05/28 03:41:10;;;;;;;0.40;0.40;;;12.50;99.90;12.30;102037.00;;;;5023551;28;20346;-65
2022/05/28 03:43:36;;;;;;;0.30;0.30;;;12.50;99.90;12.10;102042.00;;;;5016592;28;20184;-65
2022/05/28 03:46:03;;;;;;;0.30;0.30;;;12.40;99.90;12.10;102043.00;;;;5015362;28;20213;-65
2022/05/28 03:48:32;;;;;;;0.40;0.40;;;12.40;99.90;12.20;102037.00;;;;5015196;28;20179;-65
2022/05/28 03:50:58;;;;;;;0.40;0.40;;;12.50;99.90;12.40;102033.00;;;;5014817;28;20185;-65
2022/05/28 03:53:24;;;;;;;0.40;0.40;;;12.50;99.90;12.30;102040.00;;;;5014889;28;20177;-65
2022/05/28 03:55:51;;;;;;;0.40;0.40;;;12.50;99.90;12.30;102041.00;;;;5016124;28;20183;-65
2022/05/28 03:58:16;;;;;;;0.43;0.43;;;12.40;99.90;12.00;102035.00;;;;5015077;28;20175;-65
2022/05/28 04:00:42;;;;;;;0.50;0.50;;;12.50;99.90;12.10;102036.00;;;;5014515;28;20581;-65
2022/05/28 04:03:08;;;;;;;1.00;1.00;;;12.30;99.90;11.80;102036.00;;;;5014735;28;20183;-65
2022/05/28 04:05:38;;;;;;;0.40;0.40;;;12.20;99.90;11.30;102033.00;;;;5014570;28;20659;-64
2022/05/28 04:08:05;;;;;;;0.30;0.30;;;12.00;99.90;11.30;102011.00;;;;5014573;28;20631;-65
2022/05/28 04:10:31;;;;;;;0.30;0.30;;;11.80;99.90;11.30;102046.00;;;;5014794;28;20651;-65
2022/05/28 04:12:57;;;;;;;1.73;0.73;;;11.90;99.90;11.60;102052.00;;;;5015905;28;20211;-65
2022/05/28 04:15:24;;;;;;;1.97;1.87;;;11.90;99.90;11.50;102047.00;;;;5015848;28;20201;-65
2022/05/28 04:17:50;;;;;;;0.30;0.30;;;11.90;99.90;11.10;102049.00;;;;5015671;28;20225;-65
2022/05/28 04:20:16;;;;;;;0.93;0.93;;;11.70;99.90;11.30;102056.00;;;;5015087;28;20184;-65
2022/05/28 04:22:42;;;;;;;0.90;0.80;;;11.80;99.90;11.50;102058.00;;;;5014216;28;20194;-65
2022/05/28 04:25:09;;;;;;;1.17;1.10;;;11.90;99.90;11.80;102057.00;;;;5015781;28;20261;-65
2022/05/28 04:27:34;;;;;;;0.30;0.30;;;12.00;99.90;12.00;102061.00;;;;5015474;28;20233;-64
2022/05/28 04:30:01;;;;;;;0.30;0.30;;;12.30;99.90;12.60;102056.00;;;;5015471;28;20646;-65
2022/05/28 04:32:27;;;;;;;0.30;0.30;;;12.60;99.90;13.50;102050.00;;;;5014192;28;20219;-65
2022/05/28 04:34:53;;;;;;;0.30;0.30;;;13.20;99.90;14.40;102056.00;;;;5015744;28;20193;-62
2022/05/28 04:37:18;;;;;;;0.30;0.30;;;14.00;99.90;15.50;102027.00;;;;5015211;28;20228;-65
2022/05/28 04:39:45;;;;;;;0.30;0.30;;;14.80;99.90;16.20;102061.00;;;;5014184;28;20620;-65
2022/05/28 04:42:11;;;;;;;0.30;0.30;;;15.60;99.90;16.80;102073.00;;;;4997923;28;20216;-65
2022/05/28 04:44:37;;;;;;;0.30;0.30;;;16.30;99.90;16.80;102081.00;;;;5014090;28;20611;-65
2022/05/28 04:47:03;;;;;;;0.50;0.50;;;16.50;99.90;15.70;102080.00;;;;5015107;28;20178;-65
2022/05/28 04:49:29;;;;;;;0.83;0.83;;;15.80;99.90;16.00;102054.00;;;;5015289;28;20211;-65
2022/05/28 04:51:55;;;;;;;0.20;0.20;;;15.80;99.90;13.80;102043.00;;;;5013767;28;20226;-65
2022/05/28 04:54:21;;;;;;;0.37;0.37;;;14.90;99.90;13.90;102045.00;;;;5015082;28;20184;-65
2022/05/28 04:56:47;;;;;;;0.90;0.90;;;14.60;99.90;14.10;102037.00;;;;5014979;28;20184;-65
2022/05/28 04:59:12;;;;;;;0.20;0.20;;;14.40;99.90;15.20;102059.00;;;;5015097;28;20180;-65
2022/05/28 05:01:38;;;;;;;0.57;0.57;;;15.00;99.90;16.10;102069.00;;;;5014568;28;20197;-65
2022/05/28 05:04:05;;;;;;;0.20;0.20;;;15.90;99.90;16.30;102088.00;;;;5015221;28;20184;-65
2022/05/28 05:06:31;;;;;;;0.20;0.20;;;16.20;99.90;17.80;102108.00;;;;5013581;28;20276;-65
2022/05/28 05:08:57;;;;;;;0.10;0.10;;;17.20;99.90;18.70;102148.00;;;;5013904;28;20324;-65
2022/05/28 05:11:23;;;;;;;0.10;0.10;;;18.10;99.90;18.90;102151.00;;;;5013695;28;20204;-65
2022/05/28 05:13:49;;;;;;;0.10;0.10;;;18.30;99.90;20.50;102183.00;;;;5014726;28;20179;-65
2022/05/28 05:16:17;;;;;;;0.10;0.10;;;19.40;99.90;21.60;102216.00;;;;5014556;28;20243;-66
2022/05/28 05:18:43;;;;;;;0.10;0.10;;;20.40;99.90;22.50;102226.00;;;;5014499;28;20178;-63
2022/05/28 05:21:12;;;;;;;0.10;0.10;;;21.30;99.90;22.40;102234.00;;;;5014363;28;20180;-63
2022/05/28 05:23:42;;;;;;;0.10;0.10;;;21.50;99.90;21.80;102233.00;;;;5013431;28;20211;-63
2022/05/28 05:26:15;;;;;;;0.17;0.17;;;21.20;99.90;22.60;102242.00;;;;5013343;28;20176;-63
2022/05/28 05:28:41;;;;;;;0.10;0.10;;;21.50;99.90;22.90;102249.00;;;;5014235;28;20205;-63
2022/05/28 05:31:07;;;;;;;0.10;0.10;;;22.00;99.90;23.50;102223.00;;;;5014421;28;20238;-64
2022/05/28 05:33:33;;;;;;;0.63;0.63;;;22.40;99.90;24.30;102266.00;;;;5014392;28;20646;-64
2022/05/28 05:35:59;;;;;;;0.10;0.10;;;23.20;99.90;24.40;102235.00;;;;5014074;28;20262;-64
2022/05/28 05:38:24;;;;;;;0.10;0.10;;;23.50;99.90;24.80;102259.00;;;;5014358;28;20171;-66
2022/05/28 05:40:52;;;;;;;0.10;0.10;;;24.00;99.90;25.60;102269.00;;;;5012658;28;20184;-66
2022/05/28 05:43:19;;;;;;;0.10;0.10;;;24.60;99.90;25.90;102263.00;;;;5014378;28;20254;-66
2022/05/28 05:46:01;;;;;;;0.10;0.10;;;25.00;99.90;27.00;102259.00;;;;5014428;28;20201;-66
2022/05/28 05:48:28;;;;;;;0.10;0.10;;;25.70;99.90;27.80;102258.00;;;;5014295;28;20172;-64
2022/05/28 05:51:13;;;;;;;0.10;0.10;;;26.40;99.90;27.90;102251.00;;;;5013802;28;20175;-64
2022/05/28 05:53:39;;;;;;;0.13;0.13;;;27.00;99.90;28.40;102241.00;;;;5012684;28;20530;-64
2022/05/28 05:56:06;;;;;;;3.53;0.90;;;27.40;99.90;27.40;102246.00;;;;5013189;28;20266;-64
2022/05/28 05:58:34;;;;;;;0.10;0.10;;;27.40;99.90;27.10;102257.00;;;;5012844;28;20648;-64
2022/05/28 06:01:03;;;;;;;0.47;0.47;;;26.90;99.90;28.50;102223.00;;;;5014380;28;20226;-64
2022/05/28 06:03:30;;;;;;;3.08;2.92;;;27.30;99.90;28.50;102247.00;;;;5012467;28;20183;-65
2022/05/28 06:05:58;;;;;;;0.10;0.10;;;27.60;99.80;29.70;102242.00;;;;4996620;28;20282;-65
2022/05/28 06:08:24;;;;;;;0.10;0.10;;;28.30;99.10;28.70;102244.00;;;;5012484;28;20175;-65
2022/05/28 06:10:50;;;;;;;2.47;2.38;;;28.10;98.20;27.40;102235.00;;;;5013162;28;20199;-65
2022/05/28 06:13:15;;;;;;;0.10;0.10;;;27.60;98.00;29.30;102250.00;;;;5013773;28;20627;-65
2022/05/28 06:15:41;;;;;;;0.10;0.10;;;28.00;98.00;29.80;102250.00;;;;5012948;28;20658;-65
2022/05/28 06:18:07;;;;;;;0.10;0.10;;;28.60;97.20;29.30;102256.00;;;;5012588;28;20531;-65
2022/05/28 06:20:34;;;;;;;0.10;0.10;;;28.70;96.20;28.90;102261.00;;;;5013572;28;20179;-64
2022/05/28 06:23:01;;;;;;;0.10;0.10;;;28.40;96.10;28.10;102273.00;;;;5013594;28;20262;-64
2022/05/28 06:25:28;;;;;;;0.10;0.10;;;27.90;96.10;26.00;102297.00;;;;5013831;28;20183;-64
2022/05/28 06:27:54;;;;;;;0.10;0.10;;;26.50;96.80;25.20;102300.00;;;;5012322;28;20180;-64
2022/05/28 06:30:19;;;;;;;0.10;0.10;;;25.30;98.60;22.20;102265.00;;;;5013524;28;20543;-64
2022/05/28 06:32:45;;;;;;;0.20;0.20;;;23.30;99.90;21.40;102268.00;;;;5013219;28;20576;-64
2022/05/28 06:35:11;;;;;;;0.68;0.20;;;21.90;99.90;19.60;102229.00;;;;5013388;28;20183;-64
2022/05/28 06:37:37;;;;;;;0.35;0.35;;;20.50;99.90;18.40;102244.00;;;;4995832;28;20188;-66
2022/05/28 06:40:04;;;;;;;0.10;0.10;;;19.20;99.90;18.10;102239.00;;;;5013897;28;20190;-66
2022/05/28 06:42:33;;;;;;;0.30;0.30;;;18.50;99.90;18.40;102252.00;;;;5012204;28;20211;-66
2022/05/28 06:44:59;;;;;;;0.20;0.20;;;18.50;99.90;18.10;102249.00;;;;5012590;28;20209;-66
2022/05/28 06:47:26;;;;;;;0.10;0.10;;;18.60;99.90;19.70;102279.00;;;;4995873;28;20171;-66
2022/05/28 06:52:40;;;;;;;0.10;0.10;;;20.40;99.90;21.30;102282.00;;;;5012305;28;20244;-64
2022/05/28 06:55:06;;;;;;;0.10;0.10;;;21.20;99.90;21.40;102255.00;;;;5017280;28;20183;-64
2022/05/28 06:57:32;;;;;;;0.10;0.10;;;21.50;99.90;22.70;102295.00;;;;5016347;28;20191;-64
2022/05/28 06:59:58;;;;;;;0.73;0.35;;;22.00;99.90;19.40;102254.00;;;;5015931;28;20184;-64
2022/05/28 07:02:24;;;;;;;0.10;0.10;;;21.00;99.90;19.30;102288.00;;;;5016698;28;20203;-67
2022/05/28 07:04:50;;;;;;;0.57;0.40;;;19.90;99.90;20.40;102258.00;;;;4999594;28;20182;-64
2022/05/28 07:07:16;;;;;;;0.10;0.10;;;20.50;99.90;21.60;102300.00;;;;5017235;28;20183;-64
2022/05/28 07:09:46;;;;;;;0.10;0.10;;;21.30;99.90;23.10;102305.00;;;;5016880;28;20585;-64
2022/05/28 07:12:14;;;;;;;0.10;0.10;;;22.60;99.90;22.10;102297.00;;;;5015802;28;20183;-64
2022/05/28 07:14:40;;;;;;;0.10;0.10;;;23.00;99.90;21.40;102305.00;;;;5017005;28;20187;-64
2022/05/28 07:17:06;;;;;;;0.45;0.45;;;21.50;99.90;21.80;102311.00;;;;5016599;28;20176;-64
2022/05/28 07:19:32;;;;;;;0.20;0.20;;;21.70;99.90;21.40;102299.00;;;;5017117;28;20612;-64
2022/05/28 07:21:58;;;;;;;1.02;0.38;;;21.80;99.90;19.20;102291.00;;;;5015813;28;20205;-63
2022/05/28 07:24:24;;;;;;;1.23;1.10;;;20.30;99.90;20.00;102286.00;;;;5016874;28;20552;-64
2022/05/28 07:26:53;;;;;;;0.98;0.40;;;20.30;99.90;19.70;102251.00;;;;5016676;28;20194;-63
2022/05/28 07:29:19;;;;;;;5.18;1.23;;;20.40;99.90;19.80;102282.00;;;;5016855;28;20185;-64
2022/05/28 07:31:45;;;;;;;0.38;0.38;;;20.40;99.90;22.00;102299.00;;;;5015799;28;20673;-64
2022/05/28 07:34:12;;;;;;;0.20;0.20;;;21.20;99.90;22.30;102302.00;;;;5015344;28;20179;-64
2022/05/28 07:36:38;;;;;;;0.10;0.10;;;22.50;99.90;20.60;102277.00;;;;5015261;28;20207;-64
2022/05/28 07:39:05;;;;;;;0.25;0.25;;;21.60;99.90;21.90;102313.00;;;;5016767;28;20175;-64
2022/05/28 07:41:32;;;;;;;0.10;0.10;;;21.80;99.90;22.00;102313.00;;;;5016448;28;20246;-64
2022/05/28 07:43:58;;;;;;;0.10;0.10;;;22.10;99.90;20.50;102295.00;;;;5015331;28;20378;-64
2022/05/28 07:46:28;;;;;;;0.95;0.88;;;21.40;99.90;20.10;102263.00;;;;5016046;28;20914;-64
2022/05/28 07:48:56;;;;;;;0.22;0.22;;;21.00;99.90;20.60;102271.00;;;;5016494;28;20683;-64
2022/05/28 07:51:22;;;;;;;0.10;0.10;;;20.90;99.90;21.90;102312.00;;;;5016449;28;20509;-64
2022/05/28 07:53:49;;;;;;;0.17;0.17;;;21.40;99.90;23.20;102313.00;;;;5015393;28;20164;-64
2022/05/28 07:56:15;;;;;;;0.10;0.10;;;22.90;99.90;23.00;102293.00;;;;5015032;28;20229;-64
2022/05/28 07:58:42;;;;;;;0.10;0.10;;;23.30;99.90;19.10;102287.00;;;;5016171;28;20211;-64
2022/05/28 08:01:18;;;;;;;1.85;0.30;;;21.10;99.90;19.70;102309.00;;;;5014413;28;20241;-64
2022/05/28 08:03:43;;;;;;;0.20;0.20;;;20.70;99.90;19.60;102301.00;;;;5014461;28;20272;-66
2022/05/28 08:06:09;;;;;;;1.55;0.57;;;20.10;99.90;20.60;102274.00;;;;5016014;28;20267;-64
2022/05/28 08:08:35;;;;;;;0.10;0.10;;;20.50;99.90;20.20;102306.00;;;;5016600;28;20164;-64
2022/05/28 08:11:01;;;;;;;0.20;0.20;;;20.40;99.90;19.00;102295.00;;;;5015908;28;20191;-64
2022/05/28 08:13:26;;;;;;;0.25;0.25;;;19.80;99.90;18.70;102285.00;;;;5014667;28;20651;-66
2022/05/28 08:15:55;;;;;;;0.10;0.10;;;19.10;99.90;19.20;102293.00;;;;5014501;28;20270;-66
2022/05/28 08:18:24;;;;;;;0.43;0.43;;;19.40;99.90;20.40;102306.00;;;;5014820;28;20179;-66
2022/05/28 08:23:41;;;;;;;0.40;0.40;;;19.80;99.90;19.10;102291.00;;;;5014788;28;20552;-64
2022/05/28 08:26:08;;;;;;;0.75;0.25;;;19.60;99.90;19.10;102302.00;;;;5014699;28;20270;-64
2022/05/28 08:28:39;;;;;;;0.20;0.20;;;19.50;99.90;19.30;102299.00;;;;5014377;28;20182;-64
2022/05/28 08:31:06;;;;;;;0.10;0.10;;;19.20;99.90;18.10;102289.00;;;;5014354;28;20246;-64
2022/05/28 08:33:32;;;;;;;0.10;0.10;;;18.80;99.90;19.60;102303.00;;;;5015675;28;20193;-66
2022/05/28 08:35:59;;;;;;;0.10;0.10;;;19.20;99.90;19.40;102295.00;;;;5015508;28;20666;-67
2022/05/28 08:38:26;;;;;;;0.20;0.20;;;19.30;99.90;19.20;102305.00;;;;5014373;28;20175;-66
2022/05/28 08:41:14;;;;;;;0.20;0.20;;;19.30;99.90;20.10;102308.00;;;;5014345;28;20186;-66
2022/05/28 08:43:49;;;;;;;0.10;0.10;;;19.70;99.90;20.00;102298.00;;;;5014968;28;20180;-64
2022/05/28 08:46:17;;;;;;;0.98;0.32;;;20.20;99.90;19.40;102293.00;;;;5014152;28;20262;-63
2022/05/28 08:48:55;;;;;;;0.10;0.10;;;20.00;99.90;22.20;102287.00;;;;5015056;28;20259;-65
2022/05/28 08:51:52;;;;;;;0.38;0.38;;;21.30;99.90;20.50;102304.00;;;;5014283;28;20861;-64
2022/05/28 08:54:56;;;;;;;2.28;1.15;;;21.10;99.90;19.80;102317.00;;;;5014017;28;20230;-64
2022/05/28 08:57:53;;;;;;;0.10;0.10;;;20.30;99.90;21.00;102320.00;;;;5014064;28;20266;-64
2022/05/28 09:00:32;;;;;;;0.10;0.10;;;20.40;99.90;21.00;102286.00;;;;4998147;28;20186;-64
2022/05/28 09:03:11;;;;;;;3.72;3.05;;;21.20;99.90;22.20;102315.00;;;;5014569;28;20214;-64
2022/05/28 09:05:54;;;;;;;0.43;0.20;;;22.10;99.90;21.30;102323.00;;;;5014915;28;20665;-64
2022/05/28 09:08:29;;;;;;;0.10;0.10;;;21.80;99.90;20.10;102276.00;;;;5013512;28;20214;-65
2022/05/28 09:11:03;;;;;;;0.20;0.20;;;21.40;99.90;20.70;102311.00;;;;5014836;28;20542;-64
2022/05/28 09:14:03;;;;;;;0.30;0.30;;;20.90;99.90;21.50;102281.00;;;;5013298;28;20577;-64
2022/05/28 09:16:37;;;;;;;0.38;0.38;;;21.30;99.90;22.10;102307.00;;;;5012823;28;20179;-64
2022/05/28 09:19:20;;;;;;;1.88;0.50;;;21.90;99.90;21.00;102306.00;;;;5013439;28;20262;-64
2022/05/28 09:21:49;;;;;;;1.85;0.95;;;22.00;99.90;21.50;102312.00;;;;5014428;28;20253;-64
2022/05/28 09:24:31;;;;;;;0.10;0.10;;;21.90;99.90;19.70;102314.00;;;;5013535;28;20206;-64
2022/05/28 09:27:38;;;;;;;0.10;0.10;;;20.40;99.90;21.40;102313.00;;;;5014366;28;20179;-65
2022/05/28 09:30:09;;;;;;;0.30;0.30;;;20.80;99.90;20.90;102303.00;;;;5014656;28;20607;-65
2022/05/28 09:32:59;;;;;;;0.25;0.25;;;21.10;99.90;21.00;102306.00;;;;5014284;28;20650;-65
2022/05/28 09:35:46;;;;;;;0.10;0.10;;;21.10;99.90;21.10;102314.00;;;;5014698;28;20164;-65
2022/05/28 09:38:21;;;;;;;0.10;0.10;;;21.10;99.90;20.90;102297.00;;;;5014179;28;20176;-65
2022/05/28 09:41:07;;;;;;;2.90;1.17;;;20.80;99.90;20.20;102299.00;;;;5014202;28;20535;-65
2022/05/28 09:44:26;;;;;;;1.52;0.68;;;20.80;99.90;19.20;102316.00;;;;5013159;28;20183;-65
2022/05/28 09:46:52;;;;;;;1.27;0.47;;;19.50;99.90;20.90;102313.00;;;;5014166;28;20643;-65
2022/05/28 09:49:22;;;;;;;0.28;0.28;;;20.30;99.90;21.50;102309.00;;;;5014025;28;20257;-65
2022/05/28 09:52:09;;;;;;;0.20;0.20;;;21.40;99.90;20.80;102296.00;;;;5012981;28;20188;-65
2022/05/28 09:54:37;;;;;;;0.10;0.10;;;21.20;99.90;20.80;102315.00;;;;5014256;28;20171;-65
2022/05/28 09:57:10;;;;;;;0.30;0.30;;;21.00;99.90;21.30;102311.00;;;;5012625;28;20181;-65
2022/05/28 09:59:46;;;;;;;0.10;0.10;;;21.40;99.90;20.60;102313.00;;;;5012599;28;20219;-65
2022/05/28 10:02:28;;;;;;;0.10;0.10;;;21.00;99.90;21.50;102303.00;;;;5013571;28;20239;-65
2022/05/28 10:05:04;;;;;;;0.50;0.50;;;21.40;99.90;20.50;102266.00;;;;5013860;28;20257;-65
2022/05/28 10:07:43;;;;;;;0.30;0.30;;;21.10;99.90;20.00;102306.00;;;;5012636;28;20183;-65
2022/05/28 10:10:27;;;;;;;0.25;0.25;;;20.40;99.90;20.40;102302.00;;;;5012158;28;20186;-66
2022/05/28 10:13:14;;;;;;;0.57;0.57;;;20.70;99.90;20.60;102308.00;;;;5012561;28;20183;-65
2022/05/28 10:15:52;;;;;;;0.20;0.20;;;20.60;99.90;21.70;102304.00;;;;5012740;28;20233;-65
2022/05/28 10:18:22;;;;;;;0.28;0.28;;;21.30;99.90;19.90;102298.00;;;;5012542;28;20210;-66
2022/05/28 10:33:20;;;;;;;0.20;0.20;;;20.20;99.90;19.80;102285.00;;;;5070662;28;20543;-66
2022/05/28 10:35:47;;;;;;;0.10;0.10;;;19.90;99.90;19.50;102285.00;;;;5049444;28;20186;-66
2022/05/28 10:38:23;;;;;;;0.10;0.10;;;19.60;99.90;19.90;102316.00;;;;5050761;28;20170;-66
2022/05/28 10:40:55;;;;;;;1.35;1.05;;;19.90;99.90;20.70;102288.00;;;;5050591;28;20666;-66
2022/05/28 10:43:33;;;;;;;0.52;0.32;;;20.50;99.90;19.90;102288.00;;;;5065876;28;20170;-67
2022/05/28 10:46:02;;;;;;;0.15;0.15;;;20.90;99.70;21.60;102303.00;;;;5065766;28;20312;-66
2022/05/28 10:48:58;;;;;;;0.20;0.20;;;21.20;99.90;22.10;102264.00;;;;5050730;28;20712;-66
2022/05/28 10:51:48;;;;;;;0.25;0.10;;;21.80;99.10;20.40;102295.00;;;;5050250;28;20210;-66
2022/05/28 10:54:46;;;;;;;0.20;0.20;;;21.30;99.30;19.00;102308.00;;;;5049815;28;20257;-66
2022/05/28 10:57:45;;;;;;;0.20;0.20;;;20.00;99.90;18.40;102298.00;;;;5065580;28;20378;-66
2022/05/28 11:00:41;;;;;;;0.10;0.10;;;19.00;99.90;18.20;102294.00;;;;5050261;28;20174;-66
2022/05/28 11:03:25;;;;;;;2.17;1.35;;;18.80;99.90;19.50;102306.00;;;;5050230;28;20260;-66
2022/05/28 11:06:43;;;;;;;0.20;0.20;;;19.40;99.90;19.60;102299.00;;;;5065526;28;20177;-66
2022/05/28 11:09:32;;;;;;;1.27;0.88;;;20.00;99.90;20.20;102308.00;;;;5065152;28;20189;-66
2022/05/28 11:11:58;;;;;;;0.10;0.10;;;20.00;99.90;21.20;102308.00;;;;5048614;28;20301;-66
2022/05/28 11:15:01;;;;;;;0.20;0.20;;;20.90;99.90;20.60;102299.00;;;;5049882;28;20262;-66
2022/05/28 11:17:46;;;;;;;0.52;0.30;;;20.90;99.90;20.30;102291.00;;;;5050087;28;20525;-66
2022/05/28 11:20:50;;;;;;;0.20;0.20;;;20.40;99.90;19.70;102288.00;;;;5049675;28;20640;-66
2022/05/28 11:24:19;;;;;;;0.10;0.10;;;20.20;99.90;21.50;102287.00;;;;5048721;28;20212;-66
2022/05/28 11:27:35;;;;;;;0.20;0.20;;;20.80;99.90;21.40;102257.00;;;;5049679;28;20224;-66